Time;durP1;ratioP1;P1;durP2;ratioP2;P2;SDS_P1;SDS_P2;PMS_P1;PMS_P2;Temp;Humidity;BMP_temperature;BMP_pressure;BME280_temperature;BME280_humidity;BME280_pressure;Samples;Min_cycle;Max_cycle;Signal;HPM_P1;HPM_P2
2021/04/22 00:01:41;;;;;;;3.80;3.13;;;12.70;99.90;;;;;;5047888;28;20024;-60
2021/04/22 00:04:07;;;;;;;4.43;3.20;;;12.60;99.90;;;;;;5056442;28;20028;-60
2021/04/22 00:06:32;;;;;;;2.63;2.20;;;12.60;99.90;;;;;;5067060;28;20716;-60
2021/04/22 00:08:58;;;;;;;2.60;2.22;;;12.50;99.90;;;;;;5067067;28;20032;-61
2021/04/22 00:11:24;;;;;;;3.47;2.63;;;12.40;99.90;;;;;;5065670;28;20410;-60
2021/04/22 00:13:50;;;;;;;3.15;2.63;;;12.30;99.90;;;;;;5059075;28;20036;-60
2021/04/22 00:16:18;;;;;;;4.13;2.70;;;12.30;99.90;;;;;;5066994;28;20102;-60
2021/04/22 00:18:44;;;;;;;3.25;2.55;;;12.30;99.90;;;;;;5067421;28;20457;-61
2021/04/22 00:21:10;;;;;;;3.40;2.47;;;12.30;99.90;;;;;;5066013;28;20534;-60
2021/04/22 00:23:36;;;;;;;3.92;3.05;;;12.30;99.90;;;;;;5056848;28;20108;-60
2021/04/22 00:26:02;;;;;;;3.35;2.70;;;12.30;99.90;;;;;;5061178;28;20475;-60
2021/04/22 00:28:28;;;;;;;3.88;2.65;;;12.20;99.90;;;;;;5066704;28;20524;-60
2021/04/22 00:30:54;;;;;;;5.55;2.90;;;12.50;99.90;;;;;;5066573;28;20085;-60
2021/04/22 00:33:22;;;;;;;5.30;3.47;;;12.70;99.90;;;;;;5065159;28;20065;-60
2021/04/22 00:35:49;;;;;;;3.47;2.70;;;12.70;99.90;;;;;;5065692;28;20031;-60
2021/04/22 00:38:15;;;;;;;2.38;2.17;;;12.50;99.90;;;;;;5067477;28;20025;-60
2021/04/22 00:40:42;;;;;;;3.63;3.00;;;12.60;99.90;;;;;;5067078;28;20025;-60
2021/04/22 00:43:10;;;;;;;4.93;3.65;;;12.70;99.90;;;;;;5065727;28;20020;-61
2021/04/22 00:45:42;;;;;;;3.55;2.75;;;12.60;99.90;;;;;;5058050;28;20178;-60
2021/04/22 00:48:12;;;;;;;4.07;3.10;;;12.40;99.90;;;;;;5046627;28;20025;-60
2021/04/22 00:50:39;;;;;;;3.47;2.90;;;12.20;99.90;;;;;;5046388;28;20028;-60
2021/04/22 00:53:06;;;;;;;3.63;2.92;;;12.00;99.90;;;;;;5046425;28;20100;-61
2021/04/22 00:55:34;;;;;;;3.08;2.53;;;11.90;99.90;;;;;;5046333;28;20028;-61
2021/04/22 00:57:59;;;;;;;3.22;2.88;;;11.90;99.90;;;;;;5046752;28;20104;-60
2021/04/22 01:00:32;;;;;;;3.55;2.88;;;11.80;99.90;;;;;;5046287;28;20719;-60
2021/04/22 01:02:58;;;;;;;3.35;2.67;;;11.80;99.90;;;;;;5046361;28;20025;-60
2021/04/22 01:05:28;;;;;;;3.15;2.50;;;11.90;99.90;;;;;;5046072;28;20037;-61
2021/04/22 01:07:54;;;;;;;3.00;2.42;;;12.00;99.90;;;;;;5046450;28;20083;-60
2021/04/22 01:10:21;;;;;;;3.83;3.00;;;12.00;99.90;;;;;;5045791;28;20041;-60
2021/04/22 01:12:47;;;;;;;3.05;2.60;;;12.10;99.90;;;;;;5046455;28;20025;-61
2021/04/22 01:15:25;;;;;;;3.03;2.72;;;12.10;99.90;;;;;;5060641;28;20051;-61
2021/04/22 01:17:51;;;;;;;4.30;2.70;;;12.10;99.90;;;;;;5066309;28;20013;-61
2021/04/22 01:20:27;;;;;;;3.22;2.65;;;12.00;99.90;;;;;;5066407;28;20028;-61
2021/04/22 01:22:55;;;;;;;3.50;3.03;;;12.00;99.90;;;;;;5066301;28;20031;-60
2021/04/22 01:25:29;;;;;;;2.97;2.67;;;12.00;99.90;;;;;;5064170;28;20036;-61
2021/04/22 01:27:55;;;;;;;3.03;2.65;;;12.00;99.90;;;;;;5053112;28;20490;-60
2021/04/22 01:30:27;;;;;;;4.40;3.17;;;12.00;99.90;;;;;;5066170;28;20135;-60
2021/04/22 01:32:53;;;;;;;2.97;2.58;;;12.00;99.90;;;;;;5066259;28;20834;-60
2021/04/22 01:35:22;;;;;;;3.22;2.80;;;11.90;99.90;;;;;;5064448;28;20112;-60
2021/04/22 01:37:48;;;;;;;3.50;2.80;;;11.90;99.90;;;;;;5066215;28;20020;-60
2021/04/22 01:40:15;;;;;;;3.03;2.58;;;11.80;99.90;;;;;;5066905;28;20059;-60
2021/04/22 01:42:41;;;;;;;3.92;3.08;;;11.80;99.90;;;;;;5066404;28;20031;-60
2021/04/22 01:45:11;;;;;;;3.63;2.95;;;11.80;99.90;;;;;;5068763;28;20108;-61
2021/04/22 01:47:37;;;;;;;2.95;2.65;;;11.90;99.90;;;;;;5069636;28;20047;-60
2021/04/22 01:50:06;;;;;;;2.53;2.33;;;11.90;99.90;;;;;;5052063;28;20043;-60
2021/04/22 01:52:33;;;;;;;2.72;2.40;;;12.00;99.90;;;;;;5049875;28;20534;-61
2021/04/22 01:54:59;;;;;;;3.45;2.80;;;11.80;99.90;;;;;;5049131;28;20086;-60
2021/04/22 01:57:25;;;;;;;3.58;2.92;;;11.70;99.90;;;;;;5049673;28;20021;-60
2021/04/22 01:59:51;;;;;;;2.90;2.60;;;11.70;99.90;;;;;;5049962;28;20029;-60
2021/04/22 02:02:17;;;;;;;2.97;2.67;;;11.60;99.90;;;;;;5049495;28;20056;-61
2021/04/22 02:04:44;;;;;;;3.47;3.17;;;11.60;99.90;;;;;;5050183;28;20446;-60
2021/04/22 02:07:10;;;;;;;4.03;2.80;;;11.60;99.90;;;;;;5068895;28;20052;-61
2021/04/22 02:09:35;;;;;;;3.42;2.83;;;11.50;99.90;;;;;;5069063;28;20068;-60
2021/04/22 02:12:01;;;;;;;4.05;3.20;;;11.60;99.90;;;;;;5069642;28;20051;-60
2021/04/22 02:14:27;;;;;;;4.03;3.03;;;11.60;99.90;;;;;;5069430;28;20040;-60
2021/04/22 02:16:52;;;;;;;6.32;3.33;;;11.50;99.90;;;;;;5049705;28;20064;-60
2021/04/22 02:19:18;;;;;;;4.38;3.30;;;11.60;99.90;;;;;;5049324;28;20017;-60
2021/04/22 02:21:45;;;;;;;3.63;2.80;;;11.50;99.90;;;;;;5050013;28;20025;-60
2021/04/22 02:24:11;;;;;;;4.80;3.17;;;11.50;99.90;;;;;;5049821;28;20033;-60
2021/04/22 02:26:37;;;;;;;4.18;3.25;;;11.50;99.90;;;;;;5049083;28;20051;-60
2021/04/22 02:29:03;;;;;;;3.20;2.90;;;11.40;99.90;;;;;;5049536;28;20037;-60
2021/04/22 02:31:29;;;;;;;4.03;3.28;;;11.40;99.90;;;;;;5048687;28;20037;-60
2021/04/22 02:33:54;;;;;;;4.72;3.22;;;11.40;99.90;;;;;;5049130;28;20472;-61
2021/04/22 02:36:20;;;;;;;3.22;2.70;;;11.40;99.90;;;;;;5064446;28;20047;-60
2021/04/22 02:38:47;;;;;;;3.33;3.03;;;11.40;99.90;;;;;;5069234;28;20081;-60
2021/04/22 02:41:13;;;;;;;3.55;2.60;;;11.30;99.90;;;;;;5069854;28;20572;-60
2021/04/22 02:43:39;;;;;;;2.63;2.40;;;11.10;99.90;;;;;;5068721;28;20112;-60
2021/04/22 02:46:05;;;;;;;4.45;2.80;;;11.00;99.90;;;;;;5051392;28;20029;-60
2021/04/22 02:48:31;;;;;;;6.53;3.00;;;11.20;99.90;;;;;;5048454;28;20033;-60
2021/04/22 02:50:58;;;;;;;3.33;2.75;;;11.40;99.90;;;;;;5048916;28;20028;-61
2021/04/22 02:53:24;;;;;;;5.55;3.15;;;11.30;99.90;;;;;;5048786;28;20048;-61
2021/04/22 02:55:51;;;;;;;3.97;2.70;;;11.20;99.90;;;;;;5051452;28;20028;-61
2021/04/22 02:58:17;;;;;;;3.33;2.80;;;11.00;99.90;;;;;;5068784;28;20110;-60
2021/04/22 03:00:44;;;;;;;4.28;3.22;;;11.10;99.90;;;;;;5068922;28;20064;-60
2021/04/22 03:03:10;;;;;;;3.78;3.00;;;11.20;99.90;;;;;;5068662;28;20025;-61
2021/04/22 03:05:37;;;;;;;3.10;2.80;;;11.10;99.90;;;;;;5051767;28;20029;-60
2021/04/22 03:08:05;;;;;;;3.10;2.42;;;11.10;99.90;;;;;;5048741;28;20713;-60
2021/04/22 03:10:31;;;;;;;3.22;2.70;;;11.10;99.90;;;;;;5047817;28;20098;-60
2021/04/22 03:12:57;;;;;;;4.13;2.53;;;11.10;99.90;;;;;;5062901;28;20461;-61
2021/04/22 03:15:23;;;;;;;2.70;2.33;;;11.20;99.90;;;;;;5067805;28;20120;-60
2021/04/22 03:17:50;;;;;;;3.30;2.75;;;11.20;99.90;;;;;;5048142;28;20035;-60
2021/04/22 03:20:18;;;;;;;3.33;2.95;;;11.10;99.90;;;;;;5048896;28;20464;-61
2021/04/22 03:22:44;;;;;;;3.65;2.97;;;11.00;99.90;;;;;;5048740;28;20566;-60
2021/04/22 03:25:12;;;;;;;4.05;3.47;;;11.00;99.90;;;;;;5048422;28;20036;-60
2021/04/22 03:27:38;;;;;;;6.20;4.55;;;11.00;99.90;;;;;;5064839;28;20032;-60
2021/04/22 03:30:06;;;;;;;4.47;3.72;;;10.80;99.90;;;;;;5068100;28;20082;-60
2021/04/22 03:32:32;;;;;;;4.25;3.78;;;10.90;99.90;;;;;;5067882;28;20029;-60
2021/04/22 03:34:58;;;;;;;3.75;3.17;;;11.10;99.90;;;;;;5068195;28;20025;-60
2021/04/22 03:37:24;;;;;;;3.60;3.03;;;11.20;99.90;;;;;;5051715;28;20037;-60
2021/04/22 03:39:49;;;;;;;3.47;2.70;;;11.10;99.90;;;;;;5048256;28;20051;-60
2021/04/22 03:42:17;;;;;;;4.72;2.85;;;11.20;99.90;;;;;;5048945;28;20025;-60
2021/04/22 03:44:46;;;;;;;3.30;3.00;;;11.30;99.90;;;;;;5048443;28;20495;-60
2021/04/22 03:47:13;;;;;;;4.13;2.92;;;11.30;99.90;;;;;;5048232;28;20075;-60
2021/04/22 03:49:39;;;;;;;3.50;3.08;;;11.50;99.90;;;;;;5047736;28;20079;-60
2021/04/22 03:52:06;;;;;;;3.92;2.90;;;11.70;99.90;;;;;;5047958;28;20056;-60
2021/04/22 03:54:32;;;;;;;3.90;3.50;;;11.70;99.90;;;;;;5047780;28;20017;-60
2021/04/22 03:56:59;;;;;;;3.85;3.13;;;11.70;99.90;;;;;;5047225;28;20128;-60
2021/04/22 03:59:26;;;;;;;3.90;3.10;;;11.60;99.90;;;;;;5047546;28;20017;-60
2021/04/22 04:01:52;;;;;;;4.40;3.47;;;11.50;99.90;;;;;;5047704;28;20032;-60
2021/04/22 04:04:17;;;;;;;3.80;3.10;;;11.50;99.90;;;;;;5047924;28;20096;-60
2021/04/22 04:06:43;;;;;;;4.32;3.38;;;11.40;99.90;;;;;;5046670;28;20045;-60
2021/04/22 04:09:08;;;;;;;4.40;3.42;;;11.30;99.90;;;;;;5047231;28;20495;-60
2021/04/22 04:11:34;;;;;;;4.45;3.00;;;11.30;99.90;;;;;;5047345;28;20025;-61
2021/04/22 04:14:00;;;;;;;4.13;3.10;;;11.00;99.90;;;;;;5051032;28;20066;-61
2021/04/22 04:16:26;;;;;;;4.63;3.10;;;10.90;99.90;;;;;;5055942;28;20529;-61
2021/04/22 04:18:51;;;;;;;4.10;2.90;;;10.90;99.90;;;;;;5047551;28;20702;-60
2021/04/22 04:21:17;;;;;;;4.15;3.35;;;10.90;99.90;;;;;;5047471;28;20040;-60
2021/04/22 04:23:43;;;;;;;3.03;2.70;;;11.00;99.90;;;;;;5047954;28;20099;-60
2021/04/22 04:26:08;;;;;;;3.55;2.67;;;10.90;99.90;;;;;;5047068;28;20503;-60
2021/04/22 04:28:34;;;;;;;2.97;2.67;;;10.90;99.90;;;;;;5045762;28;20403;-60
2021/04/22 04:31:00;;;;;;;3.60;3.00;;;10.90;99.90;;;;;;5047122;28;20033;-60
2021/04/22 04:33:26;;;;;;;4.47;3.55;;;10.60;99.90;;;;;;5046744;28;20668;-60
2021/04/22 04:35:52;;;;;;;4.72;3.58;;;10.40;99.90;;;;;;5046855;28;20230;-61
2021/04/22 04:38:17;;;;;;;3.38;2.72;;;10.20;99.90;;;;;;5047044;28;20099;-60
2021/04/22 04:40:43;;;;;;;3.78;3.25;;;10.00;99.90;;;;;;5058976;28;20041;-61
2021/04/22 04:43:09;;;;;;;3.92;3.30;;;10.00;99.90;;;;;;5065139;28;20036;-61
2021/04/22 04:45:35;;;;;;;3.60;3.15;;;10.40;99.90;;;;;;5066673;28;20020;-61
2021/04/22 04:48:01;;;;;;;3.63;3.10;;;10.40;99.90;;;;;;5067123;28;20035;-61
2021/04/22 04:50:26;;;;;;;4.47;3.38;;;10.50;99.90;;;;;;5066769;28;20104;-61
2021/04/22 04:52:52;;;;;;;3.45;2.97;;;10.40;99.90;;;;;;5065697;28;20580;-61
2021/04/22 04:55:18;;;;;;;4.80;3.88;;;10.40;99.90;;;;;;5046742;28;20029;-61
2021/04/22 04:57:44;;;;;;;5.28;3.35;;;10.50;99.90;;;;;;5047127;28;20605;-60
2021/04/22 05:00:11;;;;;;;4.95;4.00;;;10.40;99.90;;;;;;5046658;28;20029;-60
2021/04/22 05:02:37;;;;;;;4.90;3.80;;;10.30;99.90;;;;;;5046578;28;20021;-60
2021/04/22 05:05:04;;;;;;;4.85;3.70;;;10.40;99.90;;;;;;5064528;28;20524;-60
2021/04/22 05:07:30;;;;;;;4.93;3.85;;;10.50;99.90;;;;;;5066519;28;20028;-60
2021/04/22 05:09:56;;;;;;;5.97;4.22;;;10.60;99.90;;;;;;5065541;28;20032;-60
2021/04/22 05:12:23;;;;;;;5.60;4.00;;;10.50;99.90;;;;;;5066203;28;20020;-60
2021/04/22 05:14:50;;;;;;;4.70;3.70;;;10.50;99.90;;;;;;5050397;28;20037;-60
2021/04/22 05:17:16;;;;;;;4.40;3.53;;;10.60;99.90;;;;;;5048838;28;20017;-61
2021/04/22 05:19:42;;;;;;;4.88;3.80;;;10.60;99.90;;;;;;5053689;28;20087;-60
2021/04/22 05:22:08;;;;;;;4.05;3.35;;;10.60;99.90;;;;;;5052982;28;20079;-61
2021/04/22 05:24:33;;;;;;;3.97;3.30;;;10.60;99.90;;;;;;5052685;28;20041;-60
2021/04/22 05:26:59;;;;;;;4.82;3.03;;;10.60;99.90;;;;;;5053027;28;20064;-60
2021/04/22 05:29:25;;;;;;;4.57;3.33;;;10.60;99.90;;;;;;5052733;28;20032;-60
2021/04/22 05:31:51;;;;;;;3.75;3.30;;;10.60;99.90;;;;;;5052968;28;20387;-60
2021/04/22 05:34:16;;;;;;;4.22;3.05;;;10.50;99.90;;;;;;5062387;28;20074;-60
2021/04/22 05:36:43;;;;;;;5.35;3.90;;;10.50;99.90;;;;;;5053325;28;20102;-60
2021/04/22 05:39:09;;;;;;;4.55;3.40;;;10.50;99.90;;;;;;5053219;28;20029;-60
2021/04/22 05:41:35;;;;;;;5.18;3.65;;;10.50;99.90;;;;;;5052706;28;20112;-60
2021/04/22 05:44:03;;;;;;;4.70;3.47;;;10.50;99.90;;;;;;5058709;28;20023;-60
2021/04/22 05:46:29;;;;;;;4.20;3.33;;;10.60;99.90;;;;;;5072621;28;20037;-61
2021/04/22 05:48:55;;;;;;;5.20;4.38;;;10.60;99.90;;;;;;5073037;28;20078;-60
2021/04/22 05:51:21;;;;;;;4.57;3.70;;;10.60;99.90;;;;;;5072753;28;20036;-60
2021/04/22 05:53:47;;;;;;;4.68;3.65;;;10.60;99.90;;;;;;5057751;28;20016;-61
2021/04/22 05:56:13;;;;;;;4.68;3.25;;;10.60;99.90;;;;;;5073590;28;20513;-60
2021/04/22 05:58:39;;;;;;;5.35;3.42;;;10.70;99.90;;;;;;5072081;28;20021;-60
2021/04/22 06:01:05;;;;;;;4.13;3.42;;;10.60;99.90;;;;;;5067837;28;20029;-60
2021/04/22 06:03:31;;;;;;;5.22;3.90;;;10.70;99.90;;;;;;5058612;28;20058;-60
2021/04/22 06:05:57;;;;;;;4.63;3.78;;;10.70;99.90;;;;;;5069178;28;20048;-60
2021/04/22 06:08:23;;;;;;;6.00;4.50;;;10.80;99.90;;;;;;5071963;28;20390;-60
2021/04/22 06:10:49;;;;;;;5.30;3.80;;;10.90;99.90;;;;;;5072706;28;20036;-60
2021/04/22 06:13:15;;;;;;;5.45;3.67;;;11.00;99.90;;;;;;5071715;28;20034;-60
2021/04/22 06:15:41;;;;;;;5.75;3.70;;;11.00;99.90;;;;;;5063737;28;20714;-61
2021/04/22 06:18:08;;;;;;;5.13;3.63;;;11.00;99.90;;;;;;5065233;28;20025;-61
2021/04/22 06:20:33;;;;;;;4.43;3.80;;;11.20;99.90;;;;;;5070669;28;20522;-60
2021/04/22 06:22:59;;;;;;;4.30;3.50;;;11.20;99.90;;;;;;5072831;28;20028;-60
2021/04/22 06:25:25;;;;;;;3.95;3.40;;;11.30;99.90;;;;;;5071825;28;20605;-60
2021/04/22 06:27:58;;;;;;;3.25;2.80;;;11.30;99.90;;;;;;5069011;28;20032;-60
2021/04/22 06:30:25;;;;;;;3.33;3.03;;;11.30;99.90;;;;;;5068397;28;20032;-60
2021/04/22 06:32:51;;;;;;;3.53;2.80;;;11.30;99.90;;;;;;5069520;28;20368;-60
2021/04/22 06:35:17;;;;;;;3.83;2.63;;;11.40;99.90;;;;;;5058820;28;20040;-59
2021/04/22 06:37:44;;;;;;;3.08;2.65;;;11.50;99.90;;;;;;5063619;28;20395;-59
2021/04/22 06:40:13;;;;;;;2.75;2.45;;;11.40;99.90;;;;;;5058508;28;20035;-60
2021/04/22 06:42:42;;;;;;;2.25;2.00;;;11.40;99.90;;;;;;5065913;28;20036;-60
2021/04/22 06:45:10;;;;;;;3.13;2.30;;;11.40;99.90;;;;;;5063063;28;20115;-60
2021/04/22 06:47:36;;;;;;;2.67;2.22;;;11.40;99.90;;;;;;5066141;28;20644;-60
2021/04/22 06:50:06;;;;;;;2.03;1.70;;;11.50;99.90;;;;;;5066231;28;20135;-60
2021/04/22 06:52:31;;;;;;;2.40;2.03;;;11.60;99.90;;;;;;5067428;28;20024;-60
2021/04/22 06:54:57;;;;;;;3.28;2.45;;;11.60;99.90;;;;;;5067528;28;20031;-60
2021/04/22 06:57:22;;;;;;;2.42;2.15;;;11.70;99.90;;;;;;5062132;28;20100;-60
2021/04/22 06:59:49;;;;;;;2.00;1.80;;;11.70;99.90;;;;;;5067735;28;20056;-60
2021/04/22 07:02:15;;;;;;;4.20;2.90;;;11.70;99.90;;;;;;5050180;28;20028;-60
2021/04/22 07:04:40;;;;;;;3.25;2.78;;;11.60;99.90;;;;;;5048914;28;20025;-60
2021/04/22 07:07:08;;;;;;;2.35;2.15;;;11.70;99.90;;;;;;5063459;28;20423;-60
2021/04/22 07:09:34;;;;;;;2.35;1.88;;;11.80;99.90;;;;;;5067800;28;20040;-60
2021/04/22 07:12:01;;;;;;;2.13;1.80;;;11.90;99.90;;;;;;5066786;28;20025;-60
2021/04/22 07:14:27;;;;;;;3.58;2.45;;;12.10;99.90;;;;;;5065262;28;20500;-60
2021/04/22 07:16:53;;;;;;;4.15;2.58;;;12.10;99.90;;;;;;5068394;28;20054;-60
2021/04/22 07:19:18;;;;;;;2.45;2.15;;;12.10;99.90;;;;;;5058670;28;20032;-60
2021/04/22 07:21:44;;;;;;;3.05;2.40;;;12.20;99.90;;;;;;5059509;28;20111;-59
2021/04/22 07:24:10;;;;;;;2.88;2.28;;;12.20;99.90;;;;;;5058397;28;20076;-60
2021/04/22 07:26:37;;;;;;;4.38;2.30;;;12.20;99.90;;;;;;5047001;28;20035;-60
2021/04/22 07:29:04;;;;;;;3.40;2.00;;;12.30;99.90;;;;;;5046989;28;20033;-60
2021/04/22 07:31:30;;;;;;;2.47;2.00;;;12.40;99.90;;;;;;5047039;28;20029;-60
2021/04/22 07:33:56;;;;;;;1.83;1.65;;;12.50;99.90;;;;;;5046748;28;20040;-60
2021/04/22 07:36:21;;;;;;;1.67;1.58;;;12.50;99.90;;;;;;5045749;28;20619;-60
2021/04/22 07:38:48;;;;;;;2.80;2.30;;;12.60;99.90;;;;;;5078812;28;20032;-60
2021/04/22 07:41:15;;;;;;;3.15;1.92;;;12.60;99.90;;;;;;5046477;28;20582;-60
2021/04/22 07:43:42;;;;;;;2.08;1.73;;;12.70;99.90;;;;;;5047219;28;20029;-59
2021/04/22 07:46:08;;;;;;;1.85;1.70;;;12.60;99.90;;;;;;5078809;28;20601;-60
2021/04/22 07:48:35;;;;;;;2.00;1.77;;;12.70;99.90;;;;;;5046453;28;20037;-60
2021/04/22 07:51:01;;;;;;;1.83;1.50;;;12.80;99.90;;;;;;5046847;28;20079;-60
2021/04/22 07:53:27;;;;;;;1.27;1.17;;;12.90;99.90;;;;;;5046562;28;20029;-60
2021/04/22 07:55:54;;;;;;;1.70;1.40;;;13.00;99.90;;;;;;5046680;28;20106;-60
2021/04/22 07:58:21;;;;;;;2.83;1.67;;;12.90;99.90;;;;;;5046271;28;20040;-60
2021/04/22 08:00:48;;;;;;;3.08;2.33;;;12.90;99.90;;;;;;5046394;28;20112;-60
2021/04/22 08:03:17;;;;;;;2.65;1.80;;;12.90;99.90;;;;;;5046980;28;20036;-60
2021/04/22 08:05:44;;;;;;;2.08;1.70;;;12.90;99.90;;;;;;5046770;28;20505;-60
2021/04/22 08:08:12;;;;;;;1.70;1.45;;;13.00;99.90;;;;;;5045607;28;20446;-60
2021/04/22 08:10:41;;;;;;;1.33;1.20;;;13.10;99.90;;;;;;5046070;28;20039;-60
2021/04/22 08:13:08;;;;;;;1.42;1.30;;;13.10;99.90;;;;;;5045140;28;20040;-60
2021/04/22 08:15:36;;;;;;;1.52;1.13;;;13.20;99.90;;;;;;5045593;28;20490;-60
2021/04/22 08:18:04;;;;;;;1.50;1.40;;;13.30;99.90;;;;;;5046269;28;20021;-60
2021/04/22 08:20:32;;;;;;;1.40;1.30;;;13.30;99.90;;;;;;5046003;28;20024;-60
2021/04/22 08:23:01;;;;;;;1.40;1.17;;;13.40;99.90;;;;;;5046413;28;20056;-60
2021/04/22 08:25:30;;;;;;;2.88;1.10;;;13.40;99.90;;;;;;5045723;28;20411;-60
2021/04/22 08:27:56;;;;;;;1.40;1.25;;;13.30;99.90;;;;;;5046008;28;20147;-60
2021/04/22 08:30:29;;;;;;;1.30;1.20;;;13.40;99.90;;;;;;5045505;28;20028;-60
2021/04/22 08:32:59;;;;;;;0.82;0.82;;;13.40;99.90;;;;;;5046013;28;20028;-60
2021/04/22 08:35:25;;;;;;;2.75;1.75;;;13.60;99.90;;;;;;5045458;28;20029;-60
2021/04/22 08:37:52;;;;;;;1.92;1.15;;;13.70;99.90;;;;;;5045992;28;20388;-60
2021/04/22 08:40:19;;;;;;;1.50;1.40;;;13.70;99.90;;;;;;5045948;28;20021;-60
2021/04/22 08:42:44;;;;;;;2.92;1.48;;;13.60;99.90;;;;;;5046184;28;20033;-60
2021/04/22 08:45:13;;;;;;;1.52;1.42;;;13.60;99.90;;;;;;5045638;28;20021;-60
2021/04/22 08:47:41;;;;;;;1.30;1.17;;;13.50;99.90;;;;;;5044060;28;20090;-60
2021/04/22 08:50:11;;;;;;;1.27;1.17;;;13.50;99.90;;;;;;5045773;28;20348;-60
2021/04/22 08:52:37;;;;;;;1.30;1.20;;;13.70;99.90;;;;;;5045336;28;20021;-60
2021/04/22 08:55:05;;;;;;;1.70;1.40;;;13.90;99.90;;;;;;5045363;28;20025;-60
2021/04/22 08:57:32;;;;;;;1.98;1.48;;;13.80;99.90;;;;;;5045646;28;20033;-60
2021/04/22 08:59:57;;;;;;;1.92;1.35;;;13.70;99.90;;;;;;5045393;28;20051;-60
2021/04/22 09:02:23;;;;;;;1.90;1.50;;;13.90;99.90;;;;;;5045249;28;20504;-60
2021/04/22 09:04:49;;;;;;;1.50;1.10;;;13.90;99.90;;;;;;5045676;28;20388;-61
2021/04/22 09:07:16;;;;;;;2.30;1.60;;;14.00;99.90;;;;;;5046489;28;20112;-60
2021/04/22 09:09:42;;;;;;;3.92;2.63;;;14.00;99.90;;;;;;5045236;28;20036;-60
2021/04/22 09:12:19;;;;;;;2.50;1.83;;;13.90;99.90;;;;;;5045308;28;20041;-60
2021/04/22 09:15:05;;;;;;;2.78;1.92;;;13.90;99.90;;;;;;5046040;28;20029;-60
2021/04/22 09:17:32;;;;;;;1.90;1.60;;;14.20;99.90;;;;;;5043999;28;20039;-60
2021/04/22 09:19:58;;;;;;;3.47;2.53;;;14.30;99.90;;;;;;5045251;28;20491;-60
2021/04/22 09:22:38;;;;;;;3.15;1.77;;;14.10;99.90;;;;;;5045224;28;20083;-60
2021/04/22 09:25:19;;;;;;;8.70;4.13;;;14.10;99.90;;;;;;5045355;28;20122;-60
2021/04/22 09:27:46;;;;;;;5.40;3.40;;;14.00;99.90;;;;;;5045440;28;20527;-60
2021/04/22 09:30:16;;;;;;;4.55;3.10;;;14.10;99.90;;;;;;5046160;28;20160;-60
2021/04/22 09:32:42;;;;;;;5.40;2.40;;;14.10;99.90;;;;;;5045529;28;20131;-60
2021/04/22 09:35:14;;;;;;;3.47;2.25;;;14.30;99.90;;;;;;5045509;28;20116;-60
2021/04/22 09:37:47;;;;;;;2.40;1.65;;;14.50;99.90;;;;;;5044992;28;20418;-60
2021/04/22 09:40:19;;;;;;;4.15;2.67;;;14.70;99.90;;;;;;5045880;28;20083;-60
2021/04/22 09:42:47;;;;;;;3.85;2.78;;;14.40;99.90;;;;;;5045720;28;20027;-60
2021/04/22 09:45:15;;;;;;;2.92;2.22;;;14.40;99.90;;;;;;5045399;28;20024;-60
2021/04/22 09:47:42;;;;;;;2.58;1.80;;;14.60;99.90;;;;;;5046004;28;20028;-60
2021/04/22 09:50:14;;;;;;;3.05;2.25;;;14.80;99.90;;;;;;5045369;28;20017;-60
2021/04/22 09:52:43;;;;;;;2.20;2.00;;;14.70;99.90;;;;;;5045182;28;20154;-60
2021/04/22 09:55:16;;;;;;;5.60;2.22;;;14.70;99.90;;;;;;5044834;28;20021;-60
2021/04/22 09:57:43;;;;;;;2.78;1.80;;;14.70;99.90;;;;;;5049210;28;20515;-60
2021/04/22 10:00:30;;;;;;;1.90;1.70;;;14.80;99.90;;;;;;5075822;28;20035;-59
2021/04/22 10:03:01;;;;;;;3.42;2.70;;;14.90;99.90;;;;;;5065102;28;20028;-60
2021/04/22 10:05:31;;;;;;;3.60;3.00;;;14.80;99.90;;;;;;5061675;28;20589;-59
2021/04/22 10:08:12;;;;;;;3.63;3.05;;;14.80;99.90;;;;;;5068794;28;20020;-60
2021/04/22 10:11:01;;;;;;;6.55;2.90;;;14.80;99.90;;;;;;5063623;28;20032;-60
2021/04/22 10:13:29;;;;;;;2.60;2.28;;;14.90;99.90;;;;;;5047078;28;20049;-61
2021/04/22 10:15:58;;;;;;;2.05;1.85;;;15.00;99.90;;;;;;5063081;28;20563;-60
2021/04/22 10:18:36;;;;;;;2.55;2.35;;;15.10;99.90;;;;;;5064894;28;20035;-61
2021/04/22 10:21:02;;;;;;;3.63;2.97;;;15.10;99.90;;;;;;5066909;28;20028;-61
2021/04/22 10:23:29;;;;;;;3.42;2.90;;;15.10;99.90;;;;;;5066813;28;20027;-60
2021/04/22 10:25:55;;;;;;;3.20;2.80;;;15.10;99.90;;;;;;5066176;28;20070;-61
2021/04/22 10:28:21;;;;;;;2.42;2.20;;;15.10;99.90;;;;;;5063382;28;20095;-61
2021/04/22 10:30:48;;;;;;;3.55;2.70;;;15.50;99.90;;;;;;5067011;28;20024;-61
2021/04/22 10:33:15;;;;;;;2.13;1.80;;;15.40;99.90;;;;;;5069584;28;20020;-61
2021/04/22 10:35:45;;;;;;;2.08;1.88;;;15.60;99.90;;;;;;5066773;28;20032;-61
2021/04/22 10:38:11;;;;;;;2.10;1.90;;;15.70;99.90;;;;;;5067949;28;20029;-60
2021/04/22 10:40:41;;;;;;;2.72;2.42;;;15.60;99.90;;;;;;5056569;28;20411;-60
2021/04/22 10:43:09;;;;;;;4.10;2.83;;;15.70;99.90;;;;;;5066515;28;20032;-61
2021/04/22 10:45:37;;;;;;;1.80;1.70;;;15.60;99.90;;;;;;5066626;28;20433;-61
2021/04/22 10:48:04;;;;;;;2.75;2.17;;;15.70;99.90;;;;;;5066502;28;20544;-61
2021/04/22 10:50:39;;;;;;;1.90;1.70;;;15.60;99.90;;;;;;5064856;28;20402;-61
2021/04/22 10:53:15;;;;;;;3.97;2.88;;;15.80;99.90;;;;;;5067374;28;20465;-61
2021/04/22 10:55:46;;;;;;;2.80;2.50;;;16.00;99.90;;;;;;5066831;28;20033;-63
2021/04/22 10:58:18;;;;;;;4.47;4.07;;;16.00;99.90;;;;;;5066816;28;20499;-61
2021/04/22 11:00:49;;;;;;;3.90;2.60;;;15.80;99.90;;;;;;5062139;28;20453;-60
2021/04/22 11:03:26;;;;;;;3.42;3.05;;;16.20;99.90;;;;;;5066100;28;20537;-60
2021/04/22 11:05:57;;;;;;;3.70;3.25;;;16.20;99.90;;;;;;5067033;28;20032;-60
2021/04/22 11:08:57;;;;;;;4.10;3.38;;;16.00;99.90;;;;;;5066225;28;20050;-61
2021/04/22 11:11:35;;;;;;;3.85;2.80;;;15.90;99.90;;;;;;5045310;28;20125;-61
2021/04/22 11:14:04;;;;;;;1.85;1.73;;;15.90;99.90;;;;;;5064284;28;20019;-61
2021/04/22 11:16:32;;;;;;;1.70;1.60;;;16.00;99.90;;;;;;5066290;28;20426;-62
2021/04/22 11:18:58;;;;;;;1.45;1.35;;;16.20;99.90;;;;;;5067031;28;20025;-61
2021/04/22 11:21:26;;;;;;;1.33;1.20;;;16.40;99.90;;;;;;5053991;28;20103;-61
2021/04/22 11:23:59;;;;;;;1.80;1.55;;;16.60;99.90;;;;;;5058726;28;20020;-60
2021/04/22 11:26:31;;;;;;;2.05;1.80;;;16.80;99.90;;;;;;5062516;28;20060;-62
2021/04/22 11:29:17;;;;;;;2.15;1.80;;;16.80;99.90;;;;;;5064001;28;20050;-61
2021/04/22 11:31:51;;;;;;;2.47;1.48;;;16.70;99.90;;;;;;5061186;28;20041;-60
2021/04/22 11:34:30;;;;;;;1.50;1.30;;;16.60;99.90;;;;;;5047114;28;20111;-60
2021/04/22 11:36:56;;;;;;;1.60;1.40;;;16.90;99.90;;;;;;5045871;28;20021;-62
2021/04/22 11:39:34;;;;;;;1.25;1.10;;;17.10;99.90;;;;;;5046813;28;20633;-61
2021/04/22 11:42:01;;;;;;;1.60;1.40;;;17.60;99.90;;;;;;5078281;28;20487;-61
2021/04/22 11:44:49;;;;;;;2.20;2.00;;;17.60;99.90;;;;;;5046556;28;20017;-61
2021/04/22 11:47:31;;;;;;;1.77;1.67;;;17.80;99.90;;;;;;5047596;28;20036;-60
2021/04/22 11:50:15;;;;;;;2.53;2.33;;;18.30;99.90;;;;;;5046822;28;20126;-61
2021/04/22 11:52:57;;;;;;;2.42;2.10;;;17.90;99.90;;;;;;5047303;28;20488;-60
2021/04/22 11:55:33;;;;;;;2.40;2.20;;;17.90;99.90;;;;;;5046185;28;20021;-60
2021/04/22 11:58:11;;;;;;;2.47;2.20;;;18.10;99.90;;;;;;5046374;28;20039;-60
2021/04/22 12:00:40;;;;;;;1.52;1.42;;;17.90;99.90;;;;;;5078227;28;20399;-60
2021/04/22 12:03:08;;;;;;;2.28;2.08;;;18.00;99.90;;;;;;5046508;28;20518;-60
2021/04/22 12:05:35;;;;;;;4.65;1.90;;;17.90;99.90;;;;;;5046286;28;20025;-60
2021/04/22 12:08:09;;;;;;;2.13;1.80;;;17.90;99.90;;;;;;5046448;28;20056;-61
2021/04/22 12:10:49;;;;;;;1.98;1.67;;;18.10;99.90;;;;;;5045860;28;20043;-61
2021/04/22 12:13:20;;;;;;;1.30;1.20;;;18.40;99.90;;;;;;5046846;28;20033;-60
2021/04/22 12:15:52;;;;;;;1.70;1.55;;;18.80;99.90;;;;;;5046502;28;20055;-60
2021/04/22 12:18:21;;;;;;;2.42;1.50;;;18.80;99.90;;;;;;5046411;28;20087;-60
2021/04/22 12:20:47;;;;;;;2.17;1.10;;;19.10;99.90;;;;;;5046152;28;20032;-61
2021/04/22 12:23:14;;;;;;;1.00;1.00;;;19.10;99.90;;;;;;5046860;28;20025;-61
2021/04/22 12:25:41;;;;;;;4.13;2.05;;;19.00;99.90;;;;;;5045601;28;20048;-60
2021/04/22 12:28:08;;;;;;;2.03;1.35;;;18.30;99.90;;;;;;5045345;28;20025;-60
2021/04/22 12:30:47;;;;;;;2.67;2.45;;;18.50;99.90;;;;;;5045808;28;20029;-59
2021/04/22 12:33:21;;;;;;;1.92;1.73;;;18.90;99.90;;;;;;5046640;28;20091;-60
2021/04/22 12:35:59;;;;;;;2.70;1.70;;;19.00;99.90;;;;;;5045815;28;20449;-61
2021/04/22 12:38:35;;;;;;;1.30;1.20;;;19.30;99.10;;;;;;5077754;28;20408;-60
2021/04/22 12:41:01;;;;;;;1.70;1.30;;;19.30;98.50;;;;;;5045655;28;20017;-60
2021/04/22 12:43:29;;;;;;;1.35;1.23;;;19.10;98.30;;;;;;5045757;28;20549;-60
2021/04/22 12:46:10;;;;;;;1.63;1.30;;;19.20;98.00;;;;;;5045675;28;20032;-60
2021/04/22 12:48:46;;;;;;;2.38;1.50;;;19.30;98.10;;;;;;5045310;28;20037;-60
2021/04/22 12:51:14;;;;;;;1.30;1.20;;;19.70;98.50;;;;;;5046391;28;20484;-60
2021/04/22 12:53:43;;;;;;;1.73;1.40;;;19.90;98.20;;;;;;5045389;28;20028;-60